Terminal Aerodrome Forecast
Issued by NWS

Home | Current Version | Previous Version | Text Only | Print | Product List | Glossary On
Versions: 1 2 3 4 5 6 7 8 9 10 11 12 13 14 15 16 17 18 19 20
000
FTUS41 KBTV 210346 AAB
TAFSLK
TAF AMD
KSLK 210346Z 2104/2124 VRB03KT P6SM SCT005 OVC015
      TEMPO 2104/2108 1SM -SN BR OVC005
     FM210900 22010KT P6SM SCT020
     FM211400 22013G23KT P6SM SCT200=

USA.gov is the U.S. government's official web portal to all federal, state and local government web resources and services.